createdAt,value
2022-12-31T00:00:14.263Z,981.87
2022-12-31T00:01:14.115Z,981.78
2022-12-31T00:02:14.260Z,981.89
2022-12-31T00:03:14.339Z,981.93
2022-12-31T00:04:14.172Z,981.95
2022-12-31T00:05:14.352Z,981.92
2022-12-31T00:06:14.212Z,981.90
2022-12-31T00:07:14.003Z,981.85
2022-12-31T00:08:14.073Z,981.91
2022-12-31T00:09:14.017Z,981.85
2022-12-31T00:10:13.953Z,981.76
2022-12-31T00:11:13.951Z,981.73
2022-12-31T00:12:13.977Z,981.85
2022-12-31T00:13:14.050Z,981.88
2022-12-31T00:14:14.021Z,981.85
2022-12-31T00:15:14.021Z,981.74
2022-12-31T00:16:14.219Z,981.74
2022-12-31T00:17:14.073Z,981.78
2022-12-31T00:18:13.883Z,981.77
2022-12-31T00:19:14.002Z,981.75
2022-12-31T00:20:13.870Z,981.76
2022-12-31T00:21:14.079Z,981.77
2022-12-31T00:22:13.894Z,981.82
2022-12-31T00:23:14.051Z,981.87
2022-12-31T00:24:13.851Z,981.97
2022-12-31T00:25:13.848Z,982.05
2022-12-31T00:26:13.870Z,982.12
2022-12-31T00:27:13.761Z,982.18
2022-12-31T00:28:13.860Z,982.19
2022-12-31T00:29:13.727Z,982.20
2022-12-31T00:30:13.811Z,982.24
2022-12-31T00:31:13.805Z,982.22
2022-12-31T00:32:13.871Z,982.25
2022-12-31T00:33:14.031Z,982.26
2022-12-31T00:34:13.872Z,982.42
2022-12-31T00:35:13.717Z,982.45
2022-12-31T00:36:13.656Z,982.35
2022-12-31T00:37:13.621Z,982.30
2022-12-31T00:38:13.627Z,982.45
2022-12-31T00:39:13.716Z,982.45
2022-12-31T00:40:13.582Z,982.44
2022-12-31T00:41:13.633Z,982.43
2022-12-31T00:42:13.554Z,982.45
2022-12-31T00:43:13.692Z,982.43
2022-12-31T00:44:13.539Z,982.50
2022-12-31T00:45:13.702Z,982.40
2022-12-31T00:46:13.668Z,982.51
2022-12-31T00:47:13.715Z,982.49
2022-12-31T00:48:13.521Z,982.41
2022-12-31T00:49:13.427Z,982.57
2022-12-31T00:50:13.415Z,982.67
2022-12-31T00:51:13.412Z,982.74
2022-12-31T00:52:13.488Z,982.80
2022-12-31T00:53:13.709Z,982.85
2022-12-31T00:54:13.584Z,982.82
2022-12-31T00:55:13.478Z,982.88
2022-12-31T00:56:13.534Z,982.89
2022-12-31T00:57:13.451Z,982.92
2022-12-31T00:58:13.363Z,983.00
2022-12-31T00:59:13.379Z,983.02
2022-12-31T01:00:13.560Z,983.03
2022-12-31T01:01:13.491Z,983.09
2022-12-31T01:02:13.740Z,983.09
2022-12-31T01:03:13.403Z,983.06
2022-12-31T01:04:13.266Z,983.10
2022-12-31T01:05:13.243Z,983.13
2022-12-31T01:06:13.230Z,983.19
2022-12-31T01:07:13.202Z,983.21
2022-12-31T01:08:13.324Z,983.33
2022-12-31T01:09:13.238Z,983.35
2022-12-31T01:10:13.241Z,983.35
2022-12-31T01:11:13.253Z,983.31
2022-12-31T01:12:13.273Z,983.34
2022-12-31T01:13:13.500Z,983.31
2022-12-31T01:14:13.250Z,983.30
2022-12-31T01:15:13.410Z,983.40
2022-12-31T01:16:13.335Z,983.44
2022-12-31T01:17:13.091Z,983.36
2022-12-31T01:18:13.230Z,983.43
2022-12-31T01:19:13.141Z,983.34
2022-12-31T01:20:13.076Z,983.26
2022-12-31T01:21:13.087Z,983.26
2022-12-31T01:22:13.038Z,983.32
2022-12-31T01:23:13.052Z,983.26
2022-12-31T01:24:13.052Z,983.25
2022-12-31T01:25:12.923Z,983.27
2022-12-31T01:26:13.213Z,983.27
2022-12-31T01:27:13.071Z,983.25
2022-12-31T01:28:13.240Z,983.29
2022-12-31T01:29:15.008Z,983.28
2022-12-31T01:30:12.972Z,983.30
2022-12-31T01:31:13.062Z,983.24
2022-12-31T01:32:12.957Z,983.18
2022-12-31T01:33:12.904Z,983.20
2022-12-31T01:34:12.904Z,983.14
2022-12-31T01:35:12.910Z,983.06
2022-12-31T01:36:12.919Z,983.03
2022-12-31T01:37:13.101Z,982.98
2022-12-31T01:38:12.900Z,982.92
2022-12-31T01:39:12.824Z,982.98
2022-12-31T01:40:12.986Z,982.93
2022-12-31T01:41:12.809Z,982.90
2022-12-31T01:42:12.903Z,982.87
2022-12-31T01:43:12.760Z,982.83
2022-12-31T01:44:12.708Z,982.78
2022-12-31T01:45:12.709Z,982.73
2022-12-31T01:46:12.814Z,982.77
2022-12-31T01:47:12.783Z,982.72
2022-12-31T01:48:12.701Z,982.66
2022-12-31T01:49:12.769Z,982.67
2022-12-31T01:50:12.693Z,982.62
2022-12-31T01:51:12.821Z,982.68
2022-12-31T01:52:12.664Z,982.64
2022-12-31T01:53:12.743Z,982.61
2022-12-31T01:54:12.642Z,982.55
2022-12-31T01:55:12.736Z,982.56
2022-12-31T01:56:12.610Z,982.57
2022-12-31T01:57:12.762Z,982.55
2022-12-31T01:58:12.584Z,982.49
2022-12-31T01:59:12.561Z,982.52
2022-12-31T02:00:12.500Z,982.55
2022-12-31T02:01:12.640Z,982.53
2022-12-31T02:02:12.612Z,982.45
2022-12-31T02:03:12.761Z,982.48
2022-12-31T02:04:12.580Z,982.37
2022-12-31T02:05:12.441Z,982.41
2022-12-31T02:06:12.623Z,982.44
2022-12-31T02:07:12.581Z,982.49
2022-12-31T02:08:12.490Z,982.52
2022-12-31T02:09:12.431Z,982.59
2022-12-31T02:10:12.421Z,982.55
2022-12-31T02:11:12.451Z,982.65
2022-12-31T02:12:12.671Z,982.64
2022-12-31T02:13:12.431Z,982.65
2022-12-31T02:14:12.330Z,982.67
2022-12-31T02:15:12.350Z,982.74
2022-12-31T02:16:12.647Z,982.76
2022-12-31T02:17:12.430Z,982.78
2022-12-31T02:18:12.402Z,982.77
2022-12-31T02:19:12.410Z,982.76
2022-12-31T02:20:12.272Z,982.72
2022-12-31T02:21:12.398Z,982.63
2022-12-31T02:22:12.270Z,982.66
2022-12-31T02:23:12.484Z,982.69
2022-12-31T02:24:12.270Z,982.70
2022-12-31T02:25:12.221Z,982.77
2022-12-31T02:26:12.190Z,982.77
2022-12-31T02:27:12.200Z,982.71
2022-12-31T02:28:12.244Z,982.74
2022-12-31T02:29:12.154Z,982.94
2022-12-31T02:30:12.144Z,982.91
2022-12-31T02:31:12.184Z,982.88
2022-12-31T02:32:12.655Z,982.92
2022-12-31T02:33:12.185Z,982.88
2022-12-31T02:34:12.903Z,982.86
2022-12-31T02:35:12.119Z,982.91
2022-12-31T02:36:12.281Z,982.85
2022-12-31T02:37:12.105Z,982.76
2022-12-31T02:38:12.311Z,982.84
2022-12-31T02:39:12.114Z,982.90
2022-12-31T02:40:12.272Z,982.91
2022-12-31T02:41:11.917Z,982.85
2022-12-31T02:42:12.021Z,982.90
2022-12-31T02:43:12.020Z,982.93
2022-12-31T02:44:11.909Z,982.91
2022-12-31T02:45:12.121Z,982.97
2022-12-31T02:46:11.998Z,982.96
2022-12-31T02:47:11.933Z,982.95
2022-12-31T02:48:11.921Z,982.97
2022-12-31T02:49:11.979Z,982.97
2022-12-31T02:50:11.907Z,982.95
2022-12-31T02:51:11.900Z,982.99
2022-12-31T02:52:11.861Z,982.88
2022-12-31T02:53:12.103Z,982.97
2022-12-31T02:54:11.917Z,983.00
2022-12-31T02:55:11.850Z,983.00
2022-12-31T02:56:11.758Z,982.98
2022-12-31T02:57:11.742Z,982.90
2022-12-31T02:58:11.845Z,982.95
2022-12-31T02:59:11.842Z,982.87
2022-12-31T03:00:11.884Z,982.89
2022-12-31T03:01:11.954Z,982.91
2022-12-31T03:02:12.018Z,982.88
2022-12-31T03:03:11.727Z,982.90
2022-12-31T03:04:11.671Z,982.81
2022-12-31T03:05:11.694Z,982.83
2022-12-31T03:06:11.702Z,982.79
2022-12-31T03:07:11.627Z,982.75
2022-12-31T03:08:11.635Z,982.78
2022-12-31T03:09:11.605Z,982.80
2022-12-31T03:10:11.704Z,982.74
2022-12-31T03:11:11.613Z,982.71
2022-12-31T03:12:11.569Z,982.73
2022-12-31T03:13:11.626Z,982.89
2022-12-31T03:14:11.560Z,982.84
2022-12-31T03:15:11.633Z,982.83
2022-12-31T03:16:11.633Z,982.82
2022-12-31T03:17:11.551Z,982.94
2022-12-31T03:18:11.502Z,982.84
2022-12-31T03:19:11.474Z,982.85
2022-12-31T03:20:11.550Z,982.92
2022-12-31T03:21:11.436Z,982.97
2022-12-31T03:22:11.460Z,982.96
2022-12-31T03:23:11.431Z,982.96
2022-12-31T03:24:11.426Z,982.85
2022-12-31T03:25:11.433Z,982.77
2022-12-31T03:26:11.540Z,982.86
2022-12-31T03:27:11.424Z,982.96
2022-12-31T03:28:11.421Z,983.13
2022-12-31T03:29:11.338Z,983.27
2022-12-31T03:30:11.269Z,983.37
2022-12-31T03:31:11.509Z,983.42
2022-12-31T03:32:11.386Z,983.36
2022-12-31T03:33:11.263Z,983.34
2022-12-31T03:34:11.514Z,983.43
2022-12-31T03:35:11.268Z,983.55
2022-12-31T03:36:11.309Z,983.59
2022-12-31T03:37:11.257Z,983.72
2022-12-31T03:38:11.191Z,983.64
2022-12-31T03:39:11.211Z,983.67
2022-12-31T03:40:11.172Z,983.66
2022-12-31T03:41:11.244Z,983.69
2022-12-31T03:42:11.261Z,983.48
2022-12-31T03:43:11.254Z,983.59
2022-12-31T03:44:11.171Z,983.68
2022-12-31T03:45:11.191Z,983.72
2022-12-31T03:46:11.150Z,983.75
2022-12-31T03:47:11.191Z,983.78
2022-12-31T03:48:11.116Z,983.76
2022-12-31T03:49:11.111Z,983.67
2022-12-31T03:50:11.100Z,983.53
2022-12-31T03:51:11.092Z,983.55
2022-12-31T03:52:11.148Z,983.54
2022-12-31T03:53:11.114Z,983.51
2022-12-31T03:54:11.032Z,983.44
2022-12-31T03:55:11.020Z,983.37
2022-12-31T03:56:10.974Z,983.31
2022-12-31T03:57:10.995Z,983.25
2022-12-31T03:58:11.035Z,983.25
2022-12-31T03:59:13.041Z,983.24
2022-12-31T04:00:10.960Z,983.21
2022-12-31T04:01:11.107Z,983.16
2022-12-31T04:02:11.288Z,983.12
2022-12-31T04:03:11.002Z,983.07
2022-12-31T04:04:10.912Z,983.10
2022-12-31T04:05:10.905Z,983.09
2022-12-31T04:06:10.922Z,983.11
2022-12-31T04:07:10.879Z,983.05
2022-12-31T04:08:10.909Z,983.02
2022-12-31T04:09:10.823Z,983.02
2022-12-31T04:10:10.851Z,983.01
2022-12-31T04:11:12.803Z,982.95
2022-12-31T04:12:10.783Z,982.92
2022-12-31T04:13:10.831Z,982.93
2022-12-31T04:14:10.791Z,982.95
2022-12-31T04:15:10.701Z,982.95
2022-12-31T04:16:10.844Z,983.01
2022-12-31T04:17:10.712Z,982.98
2022-12-31T04:18:10.672Z,982.95
2022-12-31T04:19:10.771Z,982.92
2022-12-31T04:20:10.712Z,982.93
2022-12-31T04:21:10.686Z,982.94
2022-12-31T04:22:10.654Z,982.95
2022-12-31T04:23:10.675Z,982.97
2022-12-31T04:24:10.673Z,982.95
2022-12-31T04:25:10.618Z,982.97
2022-12-31T04:26:10.641Z,982.96
2022-12-31T04:27:10.582Z,983.00
2022-12-31T04:28:10.584Z,983.07
2022-12-31T04:29:10.634Z,983.09
2022-12-31T04:30:10.539Z,983.04
2022-12-31T04:31:10.505Z,983.04
2022-12-31T04:32:10.700Z,983.06
2022-12-31T04:33:10.550Z,983.13
2022-12-31T04:34:10.544Z,983.07
2022-12-31T04:35:10.531Z,983.08
2022-12-31T04:36:10.662Z,983.15
2022-12-31T04:37:10.528Z,983.16
2022-12-31T04:38:10.495Z,983.11
2022-12-31T04:39:10.623Z,983.24
2022-12-31T04:40:10.673Z,983.28
2022-12-31T04:41:10.531Z,983.26
2022-12-31T04:42:10.434Z,983.19
2022-12-31T04:43:10.502Z,983.25
2022-12-31T04:44:10.362Z,983.21
2022-12-31T04:45:10.436Z,983.18
2022-12-31T04:46:10.413Z,983.13
2022-12-31T04:47:10.363Z,983.29
2022-12-31T04:48:10.332Z,983.24
2022-12-31T04:49:10.503Z,983.26
2022-12-31T04:50:10.359Z,983.35
2022-12-31T04:51:10.293Z,983.12
2022-12-31T04:52:10.262Z,983.11
2022-12-31T04:53:10.491Z,983.06
2022-12-31T04:54:10.353Z,983.02
2022-12-31T04:55:10.204Z,983.09
2022-12-31T04:56:10.220Z,983.21
2022-12-31T04:57:10.284Z,983.24
2022-12-31T04:58:10.343Z,983.31
2022-12-31T04:59:10.210Z,983.29
2022-12-31T05:00:10.471Z,983.36
2022-12-31T05:01:10.363Z,983.36
2022-12-31T05:02:10.564Z,983.39
2022-12-31T05:03:10.253Z,983.38
2022-12-31T05:04:10.091Z,983.39
2022-12-31T05:05:10.306Z,983.31
2022-12-31T05:06:10.335Z,983.30
2022-12-31T05:07:10.217Z,983.35
2022-12-31T05:08:10.062Z,983.38
2022-12-31T05:09:10.223Z,983.38
2022-12-31T05:10:10.153Z,983.45
2022-12-31T05:11:10.041Z,983.41
2022-12-31T05:12:10.034Z,983.44
2022-12-31T05:13:10.162Z,983.49
2022-12-31T05:14:10.034Z,983.49
2022-12-31T05:15:10.185Z,983.54
2022-12-31T05:16:10.062Z,983.56
2022-12-31T05:17:10.181Z,983.52
2022-12-31T05:18:10.026Z,983.48
2022-12-31T05:19:09.911Z,983.44
2022-12-31T05:20:10.024Z,983.48
2022-12-31T05:21:10.183Z,983.49
2022-12-31T05:22:09.889Z,983.50
2022-12-31T05:23:09.841Z,983.49
2022-12-31T05:24:09.896Z,983.48
2022-12-31T05:25:09.823Z,983.46
2022-12-31T05:26:09.923Z,983.43
2022-12-31T05:27:09.872Z,983.50
2022-12-31T05:28:10.033Z,983.52
2022-12-31T05:29:09.755Z,983.61
2022-12-31T05:30:09.769Z,983.54
2022-12-31T05:31:09.959Z,983.54
2022-12-31T05:32:09.794Z,983.54
2022-12-31T05:33:09.920Z,983.57
2022-12-31T05:34:10.023Z,983.63
2022-12-31T05:35:09.698Z,983.67
2022-12-31T05:36:09.758Z,983.67
2022-12-31T05:37:09.967Z,983.71
2022-12-31T05:38:09.720Z,983.72
2022-12-31T05:39:09.880Z,983.75
2022-12-31T05:40:09.721Z,983.78
2022-12-31T05:41:09.867Z,983.72
2022-12-31T05:42:09.715Z,983.80
2022-12-31T05:43:09.633Z,983.93
2022-12-31T05:44:09.683Z,983.92
2022-12-31T05:45:09.893Z,984.03
2022-12-31T05:46:09.788Z,984.05
2022-12-31T05:47:09.540Z,984.07
2022-12-31T05:48:10.022Z,984.01
2022-12-31T05:49:09.532Z,983.96
2022-12-31T05:50:09.510Z,984.15
2022-12-31T05:51:09.520Z,984.09
2022-12-31T05:52:09.500Z,983.92
2022-12-31T05:53:09.557Z,984.10
2022-12-31T05:54:09.504Z,984.02
2022-12-31T05:55:09.544Z,984.00
2022-12-31T05:56:09.414Z,983.97
2022-12-31T05:57:09.570Z,984.03
2022-12-31T05:58:09.494Z,984.01
2022-12-31T05:59:09.543Z,983.98
2022-12-31T06:00:09.451Z,983.96
2022-12-31T06:01:09.473Z,983.96
2022-12-31T06:02:09.379Z,983.90
2022-12-31T06:03:09.618Z,983.92
2022-12-31T06:04:09.485Z,983.87
2022-12-31T06:05:09.347Z,983.86
2022-12-31T06:06:09.426Z,983.86
2022-12-31T06:07:09.341Z,983.87
2022-12-31T06:08:09.376Z,983.81
2022-12-31T06:09:09.544Z,983.77
2022-12-31T06:10:09.370Z,983.80
2022-12-31T06:11:09.232Z,983.81
2022-12-31T06:12:09.246Z,983.81
2022-12-31T06:13:09.245Z,983.81
2022-12-31T06:14:09.257Z,983.80
2022-12-31T06:15:09.243Z,983.80
2022-12-31T06:16:09.286Z,983.75
2022-12-31T06:17:09.234Z,983.75
2022-12-31T06:18:09.399Z,983.78
2022-12-31T06:19:09.153Z,983.74
2022-12-31T06:20:13.099Z,983.74
2022-12-31T06:21:09.163Z,983.78
2022-12-31T06:22:09.368Z,983.81
2022-12-31T06:23:09.224Z,983.81
2022-12-31T06:24:09.124Z,983.84
2022-12-31T06:25:09.548Z,983.82
2022-12-31T06:26:09.111Z,983.84
2022-12-31T06:27:09.266Z,983.80
2022-12-31T06:28:12.181Z,983.80
2022-12-31T06:29:09.206Z,983.87
2022-12-31T06:30:09.111Z,983.87
2022-12-31T06:31:09.273Z,983.85
2022-12-31T06:32:09.071Z,983.81
2022-12-31T06:33:09.224Z,983.86
2022-12-31T06:34:08.931Z,983.84
2022-12-31T06:35:08.882Z,983.85
2022-12-31T06:36:08.968Z,983.84
2022-12-31T06:37:08.942Z,983.88
2022-12-31T06:38:08.922Z,983.89
2022-12-31T06:39:08.932Z,983.90
2022-12-31T06:40:09.109Z,983.89
2022-12-31T06:41:08.986Z,983.86
2022-12-31T06:42:08.830Z,983.80
2022-12-31T06:43:08.922Z,983.94
2022-12-31T06:44:08.891Z,983.83
2022-12-31T06:45:08.905Z,983.82
2022-12-31T06:46:09.169Z,983.93
2022-12-31T06:47:08.901Z,983.95
2022-12-31T06:48:08.790Z,983.98
2022-12-31T06:49:08.741Z,983.99
2022-12-31T06:50:08.754Z,984.00
2022-12-31T06:51:15.056Z,983.98
2022-12-31T06:52:08.842Z,983.99
2022-12-31T06:53:08.672Z,983.98
2022-12-31T06:54:08.733Z,983.97
2022-12-31T06:55:08.673Z,983.92
2022-12-31T06:56:08.761Z,983.97
2022-12-31T06:57:08.752Z,983.93
2022-12-31T06:58:08.670Z,983.98
2022-12-31T06:59:08.662Z,983.91
2022-12-31T07:00:08.631Z,983.95
2022-12-31T07:01:08.946Z,983.93
2022-12-31T07:02:08.718Z,983.88
2022-12-31T07:03:08.622Z,983.89
2022-12-31T07:04:08.608Z,983.85
2022-12-31T07:05:08.571Z,983.93
2022-12-31T07:06:08.542Z,983.96
2022-12-31T07:07:10.271Z,983.98
2022-12-31T07:08:08.509Z,983.96
2022-12-31T07:09:08.551Z,984.00
2022-12-31T07:10:08.507Z,984.01
2022-12-31T07:11:08.468Z,984.01
2022-12-31T07:12:08.753Z,984.07
2022-12-31T07:13:08.588Z,984.09
2022-12-31T07:14:08.476Z,984.14
2022-12-31T07:15:08.492Z,984.12
2022-12-31T07:16:08.466Z,984.10
2022-12-31T07:17:08.393Z,984.10
2022-12-31T07:18:08.413Z,984.14
2022-12-31T07:19:08.376Z,984.19
2022-12-31T07:20:08.353Z,984.16
2022-12-31T07:21:08.345Z,984.21
2022-12-31T07:22:08.378Z,984.22
2022-12-31T07:23:08.421Z,984.22
2022-12-31T07:24:08.352Z,984.23
2022-12-31T07:25:08.308Z,984.32
2022-12-31T07:26:08.436Z,984.20
2022-12-31T07:27:08.286Z,984.25
2022-12-31T07:28:08.430Z,984.43
2022-12-31T07:29:08.343Z,984.39
2022-12-31T07:30:08.216Z,984.30
2022-12-31T07:31:08.314Z,984.29
2022-12-31T07:32:08.192Z,984.45
2022-12-31T07:33:08.282Z,984.47
2022-12-31T07:34:08.258Z,984.61
2022-12-31T07:35:08.281Z,984.65
2022-12-31T07:36:08.458Z,984.68
2022-12-31T07:37:08.133Z,984.67
2022-12-31T07:38:08.422Z,984.63
2022-12-31T07:39:08.591Z,984.69
2022-12-31T07:40:08.193Z,984.74
2022-12-31T07:41:10.080Z,984.72
2022-12-31T07:42:08.104Z,984.84
2022-12-31T07:43:08.101Z,984.89
2022-12-31T07:44:08.033Z,984.80
2022-12-31T07:45:08.123Z,984.76
2022-12-31T07:46:08.251Z,984.78
2022-12-31T07:47:08.250Z,984.75
2022-12-31T07:48:08.112Z,984.66
2022-12-31T07:49:07.987Z,984.93
2022-12-31T07:50:07.962Z,984.93
2022-12-31T07:51:08.062Z,984.81
2022-12-31T07:52:07.940Z,984.72
2022-12-31T07:53:07.981Z,984.80
2022-12-31T07:54:13.629Z,984.72
2022-12-31T07:55:07.944Z,984.79
2022-12-31T07:56:08.193Z,984.70
2022-12-31T07:57:07.980Z,984.77
2022-12-31T07:58:07.882Z,984.76
2022-12-31T07:59:07.874Z,984.85
2022-12-31T08:00:07.852Z,984.78
2022-12-31T08:01:08.095Z,984.93
2022-12-31T08:02:08.323Z,984.85
2022-12-31T08:03:08.010Z,984.88
2022-12-31T08:04:07.775Z,984.97
2022-12-31T08:05:07.787Z,984.94
2022-12-31T08:06:07.722Z,984.91
2022-12-31T08:07:07.795Z,984.75
2022-12-31T08:08:07.784Z,984.68
2022-12-31T08:09:07.712Z,984.61
2022-12-31T08:10:12.555Z,984.57
2022-12-31T08:11:07.727Z,984.47
2022-12-31T08:12:07.792Z,984.58
2022-12-31T08:13:07.691Z,984.54
2022-12-31T08:14:07.693Z,984.53
2022-12-31T08:15:07.643Z,984.51
2022-12-31T08:16:07.696Z,984.54
2022-12-31T08:17:07.717Z,984.48
2022-12-31T08:18:07.639Z,984.55
2022-12-31T08:19:07.613Z,984.52
2022-12-31T08:20:07.552Z,984.59
2022-12-31T08:21:07.603Z,984.57
2022-12-31T08:22:07.798Z,984.59
2022-12-31T08:23:07.556Z,984.53
2022-12-31T08:24:07.503Z,984.60
2022-12-31T08:25:07.668Z,984.62
2022-12-31T08:26:07.527Z,984.60
2022-12-31T08:27:07.472Z,984.63
2022-12-31T08:28:07.473Z,984.67
2022-12-31T08:29:07.468Z,984.71
2022-12-31T08:30:07.461Z,984.68
2022-12-31T08:31:07.862Z,984.72
2022-12-31T08:32:07.416Z,984.69
2022-12-31T08:33:07.430Z,984.69
2022-12-31T08:34:07.448Z,984.74
2022-12-31T08:35:07.402Z,984.69
2022-12-31T08:36:07.506Z,984.71
2022-12-31T08:37:07.328Z,984.79
2022-12-31T08:38:07.316Z,984.81
2022-12-31T08:39:07.364Z,984.86
2022-12-31T08:40:07.300Z,984.83
2022-12-31T08:41:07.303Z,984.80
2022-12-31T08:42:07.243Z,984.80
2022-12-31T08:43:07.261Z,984.89
2022-12-31T08:44:07.336Z,984.87
2022-12-31T08:45:07.223Z,984.86
2022-12-31T08:46:07.249Z,984.88
2022-12-31T08:47:07.227Z,984.84
2022-12-31T08:48:07.161Z,984.86
2022-12-31T08:49:07.211Z,984.83
2022-12-31T08:50:07.241Z,984.83
2022-12-31T08:51:07.187Z,984.84
2022-12-31T08:52:07.172Z,984.83
2022-12-31T08:53:07.322Z,984.85
2022-12-31T08:54:07.145Z,984.89
2022-12-31T08:55:07.154Z,984.94
2022-12-31T08:56:07.161Z,984.97
2022-12-31T08:57:07.057Z,984.92
2022-12-31T08:58:07.079Z,984.97
2022-12-31T08:59:07.283Z,984.91
2022-12-31T09:00:07.089Z,984.90
2022-12-31T09:01:07.151Z,984.90
2022-12-31T09:02:07.387Z,984.97
2022-12-31T09:03:07.011Z,984.96
2022-12-31T09:04:07.025Z,984.93
2022-12-31T09:05:07.017Z,984.93
2022-12-31T09:06:07.133Z,984.95
2022-12-31T09:07:06.954Z,984.95
2022-12-31T09:08:06.925Z,984.97
2022-12-31T09:09:06.951Z,984.94
2022-12-31T09:10:06.904Z,985.04
2022-12-31T09:11:06.991Z,984.98
2022-12-31T09:12:06.883Z,984.97
2022-12-31T09:13:06.895Z,985.06
2022-12-31T09:14:06.847Z,985.02
2022-12-31T09:15:06.835Z,985.01
2022-12-31T09:16:07.038Z,985.08
2022-12-31T09:17:06.794Z,985.07
2022-12-31T09:18:06.833Z,985.01
2022-12-31T09:19:07.012Z,985.06
2022-12-31T09:20:06.884Z,985.06
2022-12-31T09:21:06.961Z,984.99
2022-12-31T09:22:06.821Z,984.99
2022-12-31T09:23:06.983Z,985.00
2022-12-31T09:24:09.469Z,985.03
2022-12-31T09:25:06.697Z,985.05
2022-12-31T09:26:06.847Z,985.07
2022-12-31T09:27:06.762Z,985.04
2022-12-31T09:28:06.838Z,985.02
2022-12-31T09:29:06.669Z,985.06
2022-12-31T09:30:06.643Z,985.05
2022-12-31T09:31:06.664Z,985.06
2022-12-31T09:32:06.821Z,985.04
2022-12-31T09:33:06.661Z,985.06
2022-12-31T09:34:06.571Z,985.08
2022-12-31T09:35:06.582Z,985.07
2022-12-31T09:36:06.555Z,985.10
2022-12-31T09:37:06.765Z,985.06
2022-12-31T09:38:11.202Z,985.06
2022-12-31T09:39:06.647Z,985.07
2022-12-31T09:40:06.491Z,985.02
2022-12-31T09:41:06.465Z,985.07
2022-12-31T09:42:06.497Z,985.07
2022-12-31T09:43:06.519Z,985.11
2022-12-31T09:44:06.513Z,985.13
2022-12-31T09:45:06.476Z,985.12
2022-12-31T09:46:06.523Z,985.13
2022-12-31T09:47:06.680Z,985.11
2022-12-31T09:48:06.600Z,985.03
2022-12-31T09:49:06.416Z,985.03
2022-12-31T09:50:06.527Z,985.00
2022-12-31T09:51:06.387Z,985.04
2022-12-31T09:52:06.511Z,985.03
2022-12-31T09:53:06.362Z,985.06
2022-12-31T09:54:06.387Z,985.00
2022-12-31T09:55:06.302Z,985.03
2022-12-31T09:56:06.302Z,984.98
2022-12-31T09:57:06.268Z,985.05
2022-12-31T09:58:06.255Z,985.05
2022-12-31T09:59:06.343Z,985.06
2022-12-31T10:00:06.249Z,985.05
2022-12-31T10:01:06.328Z,985.05
2022-12-31T10:02:06.397Z,985.06
2022-12-31T10:03:06.282Z,985.01
2022-12-31T10:04:06.203Z,984.96
2022-12-31T10:05:06.251Z,984.94
2022-12-31T10:06:06.196Z,984.90
2022-12-31T10:07:06.102Z,984.96
2022-12-31T10:08:06.152Z,984.93
2022-12-31T10:09:06.133Z,984.98
2022-12-31T10:10:06.263Z,985.03
2022-12-31T10:11:06.078Z,985.05
2022-12-31T10:12:06.115Z,985.03
2022-12-31T10:13:06.055Z,984.96
2022-12-31T10:14:06.203Z,984.97
2022-12-31T10:15:06.013Z,984.96
2022-12-31T10:16:06.113Z,985.03
2022-12-31T10:17:06.046Z,985.09
2022-12-31T10:18:05.972Z,985.15
2022-12-31T10:19:06.002Z,985.16
2022-12-31T10:20:05.979Z,985.14
2022-12-31T10:21:06.123Z,985.17
2022-12-31T10:22:05.962Z,985.20
2022-12-31T10:23:05.957Z,985.24
2022-12-31T10:24:05.972Z,985.24
2022-12-31T10:25:06.044Z,985.18
2022-12-31T10:26:05.914Z,985.17
2022-12-31T10:27:06.037Z,985.15
2022-12-31T10:28:05.843Z,985.12
2022-12-31T10:29:05.863Z,985.04
2022-12-31T10:30:05.833Z,985.06
2022-12-31T10:31:05.864Z,985.06
2022-12-31T10:32:05.894Z,985.02
2022-12-31T10:33:05.772Z,985.02
2022-12-31T10:34:05.822Z,985.01
2022-12-31T10:35:05.743Z,984.96
2022-12-31T10:36:05.775Z,984.97
2022-12-31T10:37:05.777Z,984.99
2022-12-31T10:38:05.801Z,985.01
2022-12-31T10:39:10.778Z,984.98
2022-12-31T10:40:05.738Z,984.92
2022-12-31T10:41:05.692Z,984.92
2022-12-31T10:42:05.715Z,984.96
2022-12-31T10:43:05.752Z,984.97
2022-12-31T10:44:05.662Z,984.97
2022-12-31T10:45:05.663Z,984.94
2022-12-31T10:46:05.665Z,984.99
2022-12-31T10:47:05.612Z,984.92
2022-12-31T10:48:05.596Z,984.93
2022-12-31T10:49:05.637Z,984.95
2022-12-31T10:50:05.531Z,984.90
2022-12-31T10:51:05.541Z,984.82
2022-12-31T10:52:05.551Z,984.85
2022-12-31T10:53:05.516Z,984.83
2022-12-31T10:54:05.615Z,984.83
2022-12-31T10:55:05.472Z,984.86
2022-12-31T10:56:05.502Z,984.84
2022-12-31T10:57:05.482Z,984.81
2022-12-31T10:58:05.483Z,984.83
2022-12-31T10:59:05.463Z,984.86
2022-12-31T11:00:05.511Z,984.85
2022-12-31T11:01:05.603Z,984.85
2022-12-31T11:02:05.612Z,984.86
2022-12-31T11:03:05.485Z,984.89
2022-12-31T11:04:05.412Z,984.83
2022-12-31T11:05:05.718Z,984.87
2022-12-31T11:06:05.393Z,984.85
2022-12-31T11:07:05.356Z,984.89
2022-12-31T11:08:05.343Z,984.87
2022-12-31T11:09:05.315Z,984.96
2022-12-31T11:10:05.315Z,984.89
2022-12-31T11:11:05.341Z,984.87
2022-12-31T11:12:05.241Z,984.83
2022-12-31T11:13:05.240Z,984.80
2022-12-31T11:14:05.223Z,984.76
2022-12-31T11:15:05.255Z,984.72
2022-12-31T11:16:05.389Z,984.70
2022-12-31T11:17:05.233Z,984.76
2022-12-31T11:18:05.201Z,984.70
2022-12-31T11:19:05.204Z,984.75
2022-12-31T11:20:05.196Z,984.71
2022-12-31T11:21:05.151Z,984.76
2022-12-31T11:22:05.220Z,984.74
2022-12-31T11:23:05.153Z,984.67
2022-12-31T11:24:05.106Z,984.65
2022-12-31T11:25:05.111Z,984.57
2022-12-31T11:26:05.066Z,984.57
2022-12-31T11:27:05.113Z,984.53
2022-12-31T11:28:05.056Z,984.53
2022-12-31T11:29:05.054Z,984.53
2022-12-31T11:30:05.001Z,984.46
2022-12-31T11:31:05.002Z,984.50
2022-12-31T11:32:05.007Z,984.45
2022-12-31T11:33:05.064Z,984.49
2022-12-31T11:34:05.019Z,984.51
2022-12-31T11:35:05.013Z,984.52
2022-12-31T11:36:04.962Z,984.52
2022-12-31T11:37:04.943Z,984.53
2022-12-31T11:38:05.053Z,984.50
2022-12-31T11:39:04.902Z,984.42
2022-12-31T11:40:04.890Z,984.37
2022-12-31T11:41:04.873Z,984.38
2022-12-31T11:42:04.847Z,984.37
2022-12-31T11:43:04.884Z,984.36
2022-12-31T11:44:04.911Z,984.33
2022-12-31T11:45:04.823Z,984.34
2022-12-31T11:46:04.812Z,984.31
2022-12-31T11:47:05.061Z,984.36
2022-12-31T11:48:29.716Z,984.32
2022-12-31T11:49:04.843Z,984.30
2022-12-31T11:50:04.893Z,984.32
2022-12-31T11:51:04.764Z,984.30
2022-12-31T11:52:04.777Z,984.29
2022-12-31T11:53:04.783Z,984.22
2022-12-31T11:54:04.740Z,984.19
2022-12-31T11:55:04.857Z,984.21
2022-12-31T11:56:04.915Z,984.22
2022-12-31T11:57:04.743Z,984.24
2022-12-31T11:58:04.903Z,984.18
2022-12-31T11:59:09.712Z,984.22
2022-12-31T12:00:04.682Z,984.18
2022-12-31T12:01:04.833Z,984.19
2022-12-31T12:02:04.631Z,984.16
2022-12-31T12:03:04.663Z,984.18
2022-12-31T12:04:04.673Z,984.19
2022-12-31T12:05:10.651Z,984.13
2022-12-31T12:06:04.615Z,984.12
2022-12-31T12:07:04.503Z,984.15
2022-12-31T12:08:04.491Z,984.11
2022-12-31T12:09:04.862Z,984.10
2022-12-31T12:10:04.592Z,984.08
2022-12-31T12:11:04.522Z,984.14
2022-12-31T12:12:04.526Z,984.07
2022-12-31T12:13:04.471Z,984.00
2022-12-31T12:14:04.453Z,984.04
2022-12-31T12:15:04.443Z,984.04
2022-12-31T12:16:04.633Z,984.03
2022-12-31T12:17:05.665Z,984.05
2022-12-31T12:18:04.581Z,984.03
2022-12-31T12:19:04.433Z,984.04
2022-12-31T12:20:04.560Z,983.98
2022-12-31T12:21:04.444Z,984.01
2022-12-31T12:22:04.372Z,984.00
2022-12-31T12:23:04.421Z,983.97
2022-12-31T12:24:04.347Z,983.98
2022-12-31T12:25:04.444Z,983.98
2022-12-31T12:26:04.352Z,984.02
2022-12-31T12:27:04.431Z,983.99
2022-12-31T12:28:04.263Z,984.03